Time;durP1;ratioP1;P1;durP2;ratioP2;P2;SDS_P1;SDS_P2;PMS_P1;PMS_P2;Temp;Humidity;BMP_temperature;BMP_pressure;BME280_temperature;BME280_humidity;BME280_pressure;Samples;Min_cycle;Max_cycle;Signal;HPM_P1;HPM_P2
2022/05/25 00:02:41;;;;;;;9.20;3.90;;;12.60;75.20;;;;;;9185781;19;20015;-72
2022/05/25 00:05:49;;;;;;;5.63;4.07;;;12.70;75.30;;;;;;9182944;19;20022;-73
2022/05/25 00:08:54;;;;;;;5.80;4.28;;;12.60;75.30;;;;;;9183034;19;20516;-72
2022/05/25 00:12:00;;;;;;;4.50;3.65;;;12.60;75.30;;;;;;9184154;19;20419;-73
2022/05/25 00:15:11;;;;;;;7.72;3.63;;;12.50;75.30;;;;;;9185429;19;20026;-75
2022/05/25 00:18:16;;;;;;;6.40;3.92;;;12.50;75.40;;;;;;9184196;19;20014;-73
2022/05/25 00:21:19;;;;;;;4.95;3.28;;;12.50;75.30;;;;;;9181959;19;20014;-72
2022/05/25 00:24:24;;;;;;;4.28;3.78;;;12.40;75.40;;;;;;9185437;19;20022;-73
2022/05/25 00:27:29;;;;;;;4.20;3.80;;;12.40;75.40;;;;;;9185641;19;20015;-73
2022/05/25 00:30:37;;;;;;;7.00;4.50;;;12.40;75.40;;;;;;9183631;19;20014;-73
2022/05/25 00:33:43;;;;;;;4.32;3.83;;;12.40;75.60;;;;;;9181594;19;20015;-74
2022/05/25 00:36:48;;;;;;;5.95;3.88;;;12.30;75.50;;;;;;9185574;19;20360;-73
2022/05/25 00:39:53;;;;;;;4.55;3.97;;;12.30;75.60;;;;;;9184891;19;20466;-73
2022/05/25 00:42:58;;;;;;;6.70;4.50;;;12.30;75.60;;;;;;9183676;19;20483;-74
2022/05/25 00:46:10;;;;;;;7.38;4.75;;;12.20;75.60;;;;;;9183820;19;20052;-72
2022/05/25 00:49:23;;;;;;;5.97;4.50;;;12.30;75.80;;;;;;9183693;19;20010;-73
2022/05/25 00:52:29;;;;;;;6.25;5.00;;;12.20;75.80;;;;;;9181716;19;20018;-73
2022/05/25 00:55:37;;;;;;;7.10;5.53;;;12.20;75.70;;;;;;9181360;19;20022;-73
2022/05/25 00:58:54;;;;;;;6.57;5.47;;;12.20;75.80;;;;;;9182638;19;20021;-73
2022/05/25 01:02:02;;;;;;;8.10;6.07;;;12.10;75.80;;;;;;9181010;19;20513;-72
2022/05/25 01:05:11;;;;;;;8.35;6.35;;;12.10;75.90;;;;;;9184273;19;20011;-73
2022/05/25 01:08:29;;;;;;;8.13;6.03;;;12.10;75.90;;;;;;9180995;19;20022;-73
2022/05/25 01:11:50;;;;;;;7.68;5.82;;;12.10;76.10;;;;;;9182145;19;20018;-73
2022/05/25 01:15:08;;;;;;;12.57;6.75;;;12.00;76.10;;;;;;9183239;19;20022;-73
2022/05/25 01:18:26;;;;;;;8.48;6.82;;;12.00;76.20;;;;;;9178740;19;20025;-73
2022/05/25 01:21:43;;;;;;;9.75;6.78;;;12.00;76.10;;;;;;9180697;19;20010;-73
2022/05/25 01:25:02;;;;;;;10.13;8.05;;;12.00;76.10;;;;;;9181473;19;20022;-73
2022/05/25 01:28:15;;;;;;;11.52;8.05;;;12.00;76.20;;;;;;9181558;19;20478;-73
2022/05/25 01:31:26;;;;;;;9.60;7.37;;;11.90;76.10;;;;;;9182777;19;20011;-72
2022/05/25 01:34:36;;;;;;;12.38;8.00;;;11.90;76.10;;;;;;9179412;19;20011;-73
2022/05/25 01:37:52;;;;;;;11.02;8.85;;;11.90;76.20;;;;;;9181388;19;20022;-73
2022/05/25 01:41:07;;;;;;;10.77;8.15;;;11.90;76.20;;;;;;9181762;19;20033;-73
2022/05/25 01:44:16;;;;;;;;;;;11.90;76.30;;;;;;9183991;19;20007;-72
2022/05/25 01:47:27;;;;;;;11.15;8.75;;;11.80;76.10;;;;;;9180977;19;20255;-73
2022/05/25 01:50:38;;;;;;;11.18;9.10;;;11.80;76.10;;;;;;9182693;19;20042;-72
2022/05/25 01:53:52;;;;;;;13.40;9.65;;;11.80;76.10;;;;;;9181307;19;20482;-73
2022/05/25 01:56:59;;;;;;;17.42;9.82;;;11.80;76.20;;;;;;9179991;19;20014;-72
2022/05/25 02:00:04;;;;;;;14.73;10.57;;;11.80;76.20;;;;;;9180663;19;20475;-72
2022/05/25 02:07:07;;;;;;;14.10;10.50;;;11.70;76.40;;;;;;9179489;19;20082;-72
2022/05/25 02:10:26;;;;;;;15.85;9.70;;;11.70;76.60;;;;;;9178960;19;20360;-72
2022/05/25 02:13:44;;;;;;;13.65;10.23;;;11.70;76.50;;;;;;9180553;19;20487;-72
2022/05/25 02:17:01;;;;;;;16.33;11.90;;;11.70;76.50;;;;;;9179460;19;20018;-73
2022/05/25 02:20:17;;;;;;;14.68;11.65;;;11.60;76.60;;;;;;9180950;19;20019;-72
2022/05/25 02:23:29;;;;;;;16.23;11.82;;;11.60;76.50;;;;;;9175972;19;20014;-71
2022/05/25 02:26:38;;;;;;;15.15;11.52;;;11.60;76.50;;;;;;9179484;19;20078;-72
2022/05/25 02:29:47;;;;;;;19.67;12.98;;;11.60;76.50;;;;;;9186687;19;20064;-73
2022/05/25 02:33:00;;;;;;;18.05;12.38;;;11.60;76.60;;;;;;9188462;19;20019;-73
2022/05/25 02:36:11;;;;;;;16.10;12.85;;;11.60;76.70;;;;;;9187871;19;20416;-72
2022/05/25 02:39:17;;;;;;;20.52;13.18;;;11.60;76.80;;;;;;9189140;19;20020;-72
2022/05/25 02:42:25;;;;;;;19.70;13.70;;;11.50;76.70;;;;;;9188875;19;20023;-72
2022/05/25 02:45:33;;;;;;;21.08;14.68;;;11.50;76.70;;;;;;9190051;19;20468;-73
2022/05/25 02:48:39;;;;;;;19.25;13.55;;;11.50;76.80;;;;;;9185720;19;20019;-73
2022/05/25 02:51:47;;;;;;;21.40;13.60;;;11.50;76.80;;;;;;9187687;19;20657;-73
2022/05/25 02:54:54;;;;;;;23.25;14.90;;;11.50;77.00;;;;;;9184383;19;20018;-73
2022/05/25 02:57:59;;;;;;;21.95;14.52;;;11.50;76.90;;;;;;9189082;19;20341;-73
2022/05/25 03:01:08;;;;;;;20.25;15.13;;;11.50;76.90;;;;;;9189515;19;20113;-73
2022/05/25 03:04:17;;;;;;;21.88;14.60;;;11.50;77.00;;;;;;9186958;19;20025;-73
2022/05/25 03:07:26;;;;;;;19.42;13.90;;;11.50;77.00;;;;;;9187129;19;20034;-72
2022/05/25 03:10:31;;;;;;;22.25;14.88;;;11.50;77.10;;;;;;9187427;19;20022;-72
2022/05/25 03:13:38;;;;;;;20.25;15.00;;;11.40;77.00;;;;;;9187011;19;20487;-73
2022/05/25 03:16:43;;;;;;;21.55;15.70;;;11.40;77.00;;;;;;9188590;19;20014;-73
2022/05/25 03:19:53;;;;;;;22.92;14.63;;;11.40;77.10;;;;;;9186315;19;20061;-72
2022/05/25 03:23:01;;;;;;;22.98;15.07;;;11.40;77.30;;;;;;9183922;19;20018;-73
2022/05/25 03:26:07;;;;;;;19.20;13.73;;;11.40;77.30;;;;;;9185931;19;20022;-72
2022/05/25 03:29:14;;;;;;;20.25;15.07;;;11.40;77.20;;;;;;9185818;19;20018;-72
2022/05/25 03:32:20;;;;;;;21.20;14.95;;;11.40;77.30;;;;;;9187033;19;20021;-72
2022/05/25 03:35:25;;;;;;;21.50;14.85;;;11.40;77.30;;;;;;9185114;19;20040;-72
2022/05/25 03:38:33;;;;;;;21.00;14.65;;;11.30;77.30;;;;;;9185720;19;20022;-72
2022/05/25 03:41:38;;;;;;;19.08;14.05;;;11.30;77.30;;;;;;9184048;19;20029;-73
2022/05/25 03:44:43;;;;;;;28.23;16.30;;;11.30;77.40;;;;;;9185037;19;20030;-72
2022/05/25 03:47:49;;;;;;;20.35;14.25;;;11.30;77.40;;;;;;9185523;19;20496;-73
2022/05/25 03:50:56;;;;;;;18.65;13.57;;;11.30;77.40;;;;;;9187090;19;20015;-72
2022/05/25 03:54:04;;;;;;;20.55;14.05;;;11.20;77.40;;;;;;9185929;19;20021;-72
2022/05/25 03:57:09;;;;;;;19.38;13.98;;;11.30;77.60;;;;;;9186440;19;20107;-73
2022/05/25 04:00:17;;;;;;;21.00;14.95;;;11.30;77.60;;;;;;9184234;19;20019;-72
2022/05/25 04:03:22;;;;;;;19.27;14.00;;;11.30;77.60;;;;;;9185349;19;20021;-72
2022/05/25 04:06:27;;;;;;;22.40;15.52;;;11.30;77.60;;;;;;9184655;19;20074;-73
2022/05/25 04:09:35;;;;;;;19.92;13.35;;;11.30;77.70;;;;;;9185243;19;20478;-72
2022/05/25 04:12:40;;;;;;;22.00;13.80;;;11.20;77.70;;;;;;9187369;19;20006;-72
2022/05/25 04:15:51;;;;;;;20.40;14.48;;;11.20;77.70;;;;;;9184105;19;20030;-72
2022/05/25 04:18:56;;;;;;;19.42;13.82;;;11.20;77.80;;;;;;9184649;19;20023;-72
2022/05/25 04:22:01;;;;;;;19.88;14.38;;;11.20;77.80;;;;;;9180236;19;20018;-72
2022/05/25 04:25:11;;;;;;;21.65;14.25;;;11.20;77.80;;;;;;9185941;19;20017;-74
2022/05/25 04:28:17;;;;;;;24.23;14.20;;;11.20;78.00;;;;;;9183852;19;20041;-73
2022/05/25 04:31:22;;;;;;;29.17;14.60;;;11.30;78.00;;;;;;9183338;19;20030;-73
2022/05/25 04:34:27;;;;;;;24.17;15.02;;;11.20;78.00;;;;;;9178920;19;20052;-73
2022/05/25 04:40:53;;;;;;;20.15;13.95;;;11.20;78.00;;;;;;9180972;19;20021;-73
2022/05/25 04:44:03;;;;;;;23.88;14.50;;;11.30;78.20;;;;;;9183729;19;20029;-73
2022/05/25 04:47:09;;;;;;;20.92;13.32;;;11.30;78.20;;;;;;9183242;19;20018;-73
2022/05/25 04:50:17;;;;;;;25.38;14.20;;;11.30;78.20;;;;;;9182591;19;20052;-72
2022/05/25 04:53:24;;;;;;;21.80;15.18;;;11.30;78.30;;;;;;9179147;19;20013;-72
2022/05/25 05:00:00;;;;;;;23.13;14.48;;;11.30;78.40;;;;;;9184493;19;20439;-73
2022/05/25 05:03:06;;;;;;;23.75;14.35;;;11.30;78.50;;;;;;9181568;19;20006;-72
2022/05/25 05:06:13;;;;;;;26.17;15.18;;;11.40;78.40;;;;;;9182854;19;20051;-73
2022/05/25 05:09:18;;;;;;;24.30;14.77;;;11.40;78.50;;;;;;9183157;19;20022;-74
2022/05/25 05:12:31;;;;;;;23.30;13.88;;;11.40;78.50;;;;;;9182336;19;20082;-73
2022/05/25 05:15:45;;;;;;;24.52;14.23;;;11.40;78.60;;;;;;9180491;19;20022;-74
2022/05/25 05:18:51;;;;;;;23.77;14.20;;;11.40;78.60;;;;;;9180964;19;20043;-73
2022/05/25 05:22:05;;;;;;;22.10;15.30;;;11.50;78.70;;;;;;9178197;19;20093;-74
2022/05/25 05:25:11;;;;;;;24.33;13.85;;;11.50;78.80;;;;;;9182952;19;20341;-73
2022/05/25 05:28:22;;;;;;;23.95;14.43;;;11.60;78.80;;;;;;9181435;19;20903;-74
2022/05/25 05:31:27;;;;;;;25.73;15.65;;;11.60;79.00;;;;;;9181038;19;20103;-73
2022/05/25 05:34:32;;;;;;;31.23;15.45;;;11.70;79.00;;;;;;9174920;19;20123;-74
2022/05/25 05:37:43;;;;;;;30.83;16.48;;;11.70;79.10;;;;;;9175738;19;20018;-72
2022/05/25 05:40:54;;;;;;;32.42;16.70;;;11.80;79.30;;;;;;9176472;19;20014;-73
2022/05/25 05:44:02;;;;;;;25.23;14.00;;;11.90;79.40;;;;;;9177030;19;20026;-72
2022/05/25 05:47:10;;;;;;;26.85;15.35;;;12.10;79.60;;;;;;9175539;19;20022;-75
2022/05/25 05:50:16;;;;;;;24.27;14.98;;;12.20;79.70;;;;;;9173554;19;20044;-74
2022/05/25 05:53:21;;;;;;;28.05;13.52;;;12.40;79.70;;;;;;9178041;19;20078;-74
2022/05/25 05:56:26;;;;;;;25.45;13.40;;;12.50;79.80;;;;;;9172947;19;20130;-71
2022/05/25 05:59:33;;;;;;;24.95;13.98;;;12.70;79.90;;;;;;9175745;19;21308;-74
2022/05/25 06:02:38;;;;;;;25.52;13.95;;;12.90;80.00;;;;;;9179976;19;20010;-74
2022/05/25 06:05:44;;;;;;;22.23;11.45;;;13.10;79.90;;;;;;9187417;19;20019;-73
2022/05/25 06:08:49;;;;;;;24.23;11.63;;;13.30;79.90;;;;;;9185193;19;20011;-72
2022/05/25 06:11:54;;;;;;;26.08;12.35;;;13.50;79.80;;;;;;9183425;19;20017;-72
2022/05/25 06:19:25;;;;;;;25.45;12.63;;;13.70;79.60;;;;;;9181525;19;20010;-72
2022/05/25 06:21:45;;;;;;;22.00;12.25;;;14.10;79.50;;;;;;9180418;19;20022;-73
2022/05/25 06:24:52;;;;;;;20.25;11.20;;;14.30;79.40;;;;;;9182881;19;20014;-73
2022/05/25 06:27:58;;;;;;;21.55;10.73;;;14.40;79.30;;;;;;9179701;19;20018;-74
2022/05/25 06:31:09;;;;;;;19.08;11.30;;;14.70;79.30;;;;;;9185482;19;20010;-73
2022/05/25 06:34:18;;;;;;;19.02;10.48;;;14.90;79.30;;;;;;9177951;19;20014;-74
2022/05/25 06:37:27;;;;;;;16.65;10.98;;;15.10;79.20;;;;;;9184843;19;20018;-72
2022/05/25 06:40:33;;;;;;;15.80;9.68;;;15.30;79.00;;;;;;9183788;19;20018;-72
2022/05/25 06:43:38;;;;;;;24.85;10.70;;;15.50;78.80;;;;;;9184079;19;20082;-72
2022/05/25 06:46:51;;;;;;;16.77;10.38;;;15.60;78.60;;;;;;9181735;19;20034;-73
2022/05/25 06:49:57;;;;;;;17.88;10.23;;;15.90;78.50;;;;;;9183323;19;20014;-75
2022/05/25 06:53:04;;;;;;;19.67;9.27;;;16.00;78.40;;;;;;9184710;19;20017;-74
2022/05/25 06:56:10;;;;;;;21.17;9.32;;;16.20;78.20;;;;;;9180635;19;20015;-72
2022/05/25 06:59:18;;;;;;;17.30;8.85;;;16.40;78.10;;;;;;9184563;19;20061;-74
2022/05/25 07:02:29;;;;;;;22.20;8.80;;;16.50;77.90;;;;;;9184511;19;20483;-75
2022/05/25 07:05:40;;;;;;;16.33;8.40;;;16.70;77.80;;;;;;9183991;19;20353;-75
2022/05/25 07:08:48;;;;;;;15.57;8.32;;;16.80;77.50;;;;;;9183713;19;20019;-73
2022/05/25 07:11:59;;;;;;;17.80;7.13;;;17.00;77.90;;;;;;9183287;19;20015;-74
2022/05/25 07:15:05;;;;;;;24.75;7.70;;;17.10;77.10;;;;;;9184334;19;20024;-73
2022/05/25 07:18:17;;;;;;;15.02;8.23;;;17.30;76.90;;;;;;9182921;19;20026;-73
2022/05/25 07:21:28;;;;;;;11.27;6.63;;;17.40;76.80;;;;;;9180294;19;20044;-76
2022/05/25 07:24:33;;;;;;;13.05;7.32;;;17.60;76.60;;;;;;9184676;19;20033;-75
2022/05/25 07:27:39;;;;;;;14.60;6.72;;;17.70;76.40;;;;;;9181803;19;20015;-75
2022/05/25 07:30:52;;;;;;;15.07;7.45;;;17.80;76.10;;;;;;9179346;19;20015;-75
2022/05/25 07:34:04;;;;;;;12.18;5.68;;;18.00;75.90;;;;;;9183473;19;20021;-76
2022/05/25 07:37:16;;;;;;;17.83;6.50;;;18.10;75.50;;;;;;9181073;19;20014;-75
2022/05/25 07:40:25;;;;;;;10.93;5.85;;;18.30;75.50;;;;;;9184847;19;20014;-75
2022/05/25 07:43:35;;;;;;;13.05;5.75;;;18.40;75.20;;;;;;9183482;19;20357;-75
2022/05/25 07:46:41;;;;;;;14.38;5.80;;;18.50;74.90;;;;;;9180850;19;20044;-75
2022/05/25 07:49:52;;;;;;;13.00;5.80;;;18.70;74.90;;;;;;9180040;19;20023;-77
2022/05/25 07:53:01;;;;;;;15.90;5.97;;;18.70;74.50;;;;;;9181442;19;20018;-75
2022/05/25 07:56:07;;;;;;;13.15;5.97;;;18.90;74.40;;;;;;9177803;19;20460;-77
2022/05/25 07:59:14;;;;;;;9.98;5.22;;;19.00;74.10;;;;;;9183292;19;20013;-74
2022/05/25 08:05:47;;;;;;;9.13;4.90;;;19.20;73.60;;;;;;9184536;19;20637;-75
2022/05/25 08:09:01;;;;;;;6.93;5.30;;;19.30;73.30;;;;;;9179095;19;20014;-76
2022/05/25 08:12:14;;;;;;;14.15;5.35;;;19.40;73.80;;;;;;9180438;19;20018;-75
2022/05/25 08:15:20;;;;;;;10.30;5.53;;;19.50;73.00;;;;;;9178834;19;20015;-76
2022/05/25 08:18:35;;;;;;;9.07;5.60;;;19.60;72.90;;;;;;9182806;19;20019;-76
2022/05/25 08:21:43;;;;;;;10.48;5.82;;;19.70;72.60;;;;;;9178829;19;20368;-74
2022/05/25 08:24:53;;;;;;;6.50;4.82;;;19.80;72.20;;;;;;9179576;19;20030;-75
2022/05/25 08:27:58;;;;;;;12.35;5.30;;;19.90;71.90;;;;;;9184288;19;20031;-74
2022/05/25 08:31:08;;;;;;;12.23;5.93;;;19.90;71.60;;;;;;9183643;19;20025;-73
2022/05/25 08:34:14;;;;;;;8.77;4.50;;;19.90;71.40;;;;;;9180164;19;20386;-77
2022/05/25 08:37:23;;;;;;;7.15;4.72;;;20.00;71.20;;;;;;9182524;19;20025;-75
2022/05/25 08:40:42;;;;;;;6.10;4.60;;;20.00;70.90;;;;;;9184329;19;20021;-77
2022/05/25 08:43:50;;;;;;;9.25;5.47;;;20.00;70.90;;;;;;9163285;19;20011;-76
2022/05/25 08:46:58;;;;;;;12.70;5.15;;;20.00;70.70;;;;;;9153769;19;20045;-74
2022/05/25 08:50:06;;;;;;;9.65;5.45;;;20.00;70.60;;;;;;9181273;19;20098;-77
2022/05/25 08:53:19;;;;;;;8.95;4.95;;;20.10;70.60;;;;;;9177733;19;20105;-75
2022/05/25 08:56:30;;;;;;;9.53;4.07;;;20.10;70.40;;;;;;9182499;19;20011;-76
2022/05/25 08:59:42;;;;;;;8.70;4.45;;;20.20;70.50;;;;;;9183098;19;20019;-76
2022/05/25 09:02:58;;;;;;;9.32;3.88;;;20.30;70.30;;;;;;9183675;19;20026;-75
2022/05/25 09:06:12;;;;;;;6.30;3.80;;;20.40;70.10;;;;;;9182860;19;20011;-75
2022/05/25 09:09:28;;;;;;;9.13;4.45;;;20.50;69.90;;;;;;9182700;19;20010;-74
2022/05/25 09:12:47;;;;;;;8.80;4.80;;;20.60;69.50;;;;;;9183718;19;20011;-75
2022/05/25 09:19:17;;;;;;;4.18;2.97;;;20.70;69.10;;;;;;9183834;19;20022;-75
2022/05/25 09:22:26;;;;;;;8.13;2.78;;;20.80;68.80;;;;;;9177641;19;20014;-73
2022/05/25 09:25:36;;;;;;;9.02;3.10;;;20.80;68.40;;;;;;9181579;19;20021;-75
2022/05/25 09:28:47;;;;;;;5.03;2.70;;;20.80;68.00;;;;;;9182187;19;20010;-74
2022/05/25 09:32:02;;;;;;;5.90;3.08;;;20.70;67.90;;;;;;9182047;19;20022;-74
2022/05/25 09:35:13;;;;;;;6.70;3.38;;;20.70;67.90;;;;;;9181916;19;20349;-73
2022/05/25 09:38:35;;;;;;;6.45;2.83;;;20.60;67.70;;;;;;9183014;19;20014;-74
2022/05/25 09:41:48;;;;;;;4.43;2.35;;;20.60;67.40;;;;;;9191556;19;20207;-74
2022/05/25 09:44:56;;;;;;;4.63;2.60;;;20.60;67.20;;;;;;9190768;19;20074;-73
2022/05/25 09:48:31;;;;;;;3.63;1.90;;;20.50;67.30;;;;;;9192169;19;20015;-72
2022/05/25 09:51:43;;;;;;;5.88;2.08;;;20.40;67.00;;;;;;9192345;19;20096;-73
2022/05/25 09:54:54;;;;;;;2.88;2.17;;;20.40;67.20;;;;;;9192095;19;20003;-73
2022/05/25 09:58:07;;;;;;;3.67;2.50;;;20.30;67.10;;;;;;9188813;19;20729;-75
2022/05/25 10:01:24;;;;;;;9.13;2.72;;;20.20;67.00;;;;;;9191623;19;20021;-73
2022/05/25 10:04:51;;;;;;;4.78;2.13;;;20.20;66.90;;;;;;9189865;19;20011;-74
2022/05/25 10:08:03;;;;;;;6.82;3.03;;;20.20;66.90;;;;;;9187167;19;20025;-72
2022/05/25 10:11:32;;;;;;;6.93;2.40;;;20.20;67.00;;;;;;9190450;19;20447;-73
2022/05/25 10:14:58;;;;;;;5.25;2.35;;;20.30;66.80;;;;;;9189707;19;20044;-73
2022/05/25 10:18:09;;;;;;;8.23;2.80;;;20.30;66.90;;;;;;9186387;19;20028;-72
2022/05/25 10:21:29;;;;;;;3.65;2.28;;;20.40;67.00;;;;;;9185585;19;20022;-74
2022/05/25 10:24:41;;;;;;;5.25;2.53;;;20.40;66.80;;;;;;9188483;19;20360;-74
2022/05/25 10:27:49;;;;;;;5.40;2.45;;;20.50;66.60;;;;;;9188744;19;20022;-74
2022/05/25 10:37:46;;;;;;;4.50;2.60;;;20.70;66.30;;;;;;9184353;19;20019;-74
2022/05/25 10:40:53;;;;;;;8.80;3.70;;;20.70;66.10;;;;;;9187685;19;20539;-75
2022/05/25 10:44:07;;;;;;;5.47;2.38;;;20.80;65.90;;;;;;9190003;19;20025;-75
2022/05/25 10:47:39;;;;;;;4.97;2.50;;;20.90;65.70;;;;;;9188050;19;20014;-72
2022/05/25 10:50:52;;;;;;;4.75;1.88;;;21.00;65.20;;;;;;9188388;19;20020;-74
2022/05/25 10:58:10;;;;;;;5.55;2.38;;;21.20;64.90;;;;;;9184134;19;20015;-76
2022/05/25 11:01:33;;;;;;;3.47;1.88;;;21.30;64.50;;;;;;9188174;19;20021;-77
2022/05/25 11:04:56;;;;;;;4.45;2.10;;;21.30;64.40;;;;;;9188096;19;20030;-76
2022/05/25 11:08:10;;;;;;;6.47;2.28;;;21.30;64.00;;;;;;9185281;19;20022;-75
2022/05/25 11:11:27;;;;;;;5.13;2.30;;;21.30;63.90;;;;;;9188441;19;20464;-74
2022/05/25 11:14:48;;;;;;;5.75;2.70;;;21.30;63.70;;;;;;9186772;19;20025;-74
2022/05/25 11:18:12;;;;;;;5.43;2.92;;;21.30;63.80;;;;;;9186090;19;20056;-75
2022/05/25 11:21:31;;;;;;;6.28;2.40;;;21.30;63.50;;;;;;9184687;19;20007;-75
2022/05/25 11:24:50;;;;;;;10.27;2.38;;;21.30;63.20;;;;;;9188001;19;20475;-74
2022/05/25 11:28:18;;;;;;;5.60;2.40;;;21.40;63.30;;;;;;9187063;19;20018;-75
2022/05/25 11:31:33;;;;;;;5.00;3.03;;;21.40;63.00;;;;;;9188156;19;20497;-75
2022/05/25 11:34:48;;;;;;;11.05;3.72;;;21.40;63.50;;;;;;9188963;19;20011;-75
2022/05/25 11:38:17;;;;;;;5.43;3.33;;;21.50;62.90;;;;;;9184041;19;20116;-75
2022/05/25 11:41:34;;;;;;;9.93;3.80;;;21.50;62.50;;;;;;9186933;19;20762;-75
2022/05/25 11:44:52;;;;;;;4.60;3.67;;;21.60;62.50;;;;;;9187306;19;20006;-74
2022/05/25 11:48:27;;;;;;;6.82;3.90;;;21.70;62.40;;;;;;9186799;19;20420;-75
2022/05/25 11:51:39;;;;;;;6.03;4.65;;;21.80;62.00;;;;;;9186786;19;20484;-77
2022/05/25 11:54:59;;;;;;;6.97;4.82;;;21.90;62.10;;;;;;9186097;19;20027;-76
2022/05/25 11:58:18;;;;;;;7.97;4.93;;;22.00;61.50;;;;;;9184213;19;20111;-74
2022/05/25 12:01:34;;;;;;;8.93;4.90;;;22.10;61.60;;;;;;9183423;19;20014;-76
2022/05/25 12:05:04;;;;;;;7.45;5.50;;;22.20;61.30;;;;;;9185145;19;20015;-76
2022/05/25 12:08:40;;;;;;;6.75;5.43;;;22.30;60.90;;;;;;9178030;19;20045;-75
2022/05/25 12:11:54;;;;;;;8.73;5.18;;;22.40;60.60;;;;;;9178128;19;20022;-75
2022/05/25 12:15:09;;;;;;;6.75;5.55;;;22.40;60.30;;;;;;9178568;19;20026;-75
2022/05/25 12:18:26;;;;;;;8.80;5.97;;;22.40;60.30;;;;;;9177721;19;20014;-75
2022/05/25 12:21:37;;;;;;;10.32;6.50;;;22.40;60.10;;;;;;9174023;19;20015;-75
2022/05/25 12:24:43;;;;;;;10.52;5.72;;;22.30;60.00;;;;;;9175869;19;20007;-74
2022/05/25 12:27:57;;;;;;;11.43;5.55;;;22.20;60.00;;;;;;9178815;19;20017;-74
2022/05/25 12:31:07;;;;;;;11.73;6.15;;;22.20;59.90;;;;;;9180405;19;20021;-76
2022/05/25 12:34:14;;;;;;;9.40;5.55;;;22.20;59.90;;;;;;9173681;19;20115;-76
2022/05/25 12:37:28;;;;;;;8.35;4.50;;;22.10;59.90;;;;;;9175305;19;20023;-75
2022/05/25 12:40:46;;;;;;;6.07;3.70;;;22.10;59.60;;;;;;9178015;19;20033;-75
2022/05/25 12:43:56;;;;;;;5.72;2.53;;;22.00;59.30;;;;;;9177599;19;20022;-76
2022/05/25 12:50:45;;;;;;;4.95;2.03;;;21.90;59.20;;;;;;9177314;19;20025;-75
2022/05/25 12:54:00;;;;;;;4.43;1.80;;;21.90;59.40;;;;;;9176054;19;20763;-75
2022/05/25 12:57:08;;;;;;;12.43;2.45;;;21.90;59.20;;;;;;9176612;19;20082;-76
2022/05/25 13:00:23;;;;;;;6.53;1.90;;;21.90;59.40;;;;;;9175153;19;20468;-76
2022/05/25 13:04:18;;;;;;;5.22;2.00;;;21.90;59.10;;;;;;9175291;19;20086;-75
2022/05/25 13:07:46;;;;;;;4.13;2.20;;;21.90;58.90;;;;;;9177004;19;20017;-76
2022/05/25 13:11:06;;;;;;;6.13;2.00;;;21.90;58.70;;;;;;9175860;19;20483;-75
2022/05/25 13:14:45;;;;;;;5.82;2.25;;;21.90;58.50;;;;;;9174145;19;20021;-75
2022/05/25 13:17:55;;;;;;;3.28;1.90;;;21.80;58.20;;;;;;9174683;19;20018;-75
2022/05/25 13:21:04;;;;;;;4.80;1.67;;;21.80;58.50;;;;;;9172319;19;20019;-75
2022/05/25 13:24:41;;;;;;;6.35;1.90;;;21.70;58.40;;;;;;9175741;19;20381;-76
2022/05/25 13:28:09;;;;;;;4.03;2.45;;;21.60;58.30;;;;;;9174193;19;20052;-76
2022/05/25 13:31:35;;;;;;;5.00;2.42;;;21.50;58.40;;;;;;9174792;19;20023;-75
2022/05/25 13:34:43;;;;;;;5.90;2.30;;;21.40;58.60;;;;;;9175050;19;20014;-77
2022/05/25 13:37:51;;;;;;;3.20;2.10;;;21.30;58.80;;;;;;9173328;19;20019;-75
2022/05/25 13:41:05;;;;;;;12.52;2.58;;;21.20;58.70;;;;;;9176189;19;20014;-76
2022/05/25 13:44:17;;;;;;;3.45;1.90;;;21.20;58.70;;;;;;9174471;19;20111;-76
2022/05/25 13:47:25;;;;;;;3.08;1.80;;;21.20;58.80;;;;;;9173918;19;20018;-76
2022/05/25 13:50:41;;;;;;;3.10;1.70;;;21.20;58.70;;;;;;9175365;19;20014;-76
2022/05/25 13:53:46;;;;;;;2.20;1.50;;;21.20;58.50;;;;;;9175130;19;20022;-76
2022/05/25 13:56:53;;;;;;;6.25;1.55;;;21.20;58.60;;;;;;9174294;19;20025;-75
2022/05/25 14:00:22;;;;;;;2.08;1.40;;;21.20;58.40;;;;;;9171541;19;20069;-75
2022/05/25 14:03:35;;;;;;;5.88;1.88;;;21.30;58.40;;;;;;9171637;19;20028;-75
2022/05/25 14:06:49;;;;;;;3.47;1.20;;;21.20;58.20;;;;;;9175285;19;20018;-76
2022/05/25 14:13:24;;;;;;;4.18;1.50;;;21.20;58.20;;;;;;9174046;19;20022;-77
2022/05/25 14:16:39;;;;;;;1.98;1.52;;;21.20;58.00;;;;;;9174475;19;20018;-75
2022/05/25 14:19:55;;;;;;;4.50;2.00;;;21.20;57.80;;;;;;9172417;19;20037;-76
2022/05/25 14:23:03;;;;;;;4.20;1.50;;;21.10;57.80;;;;;;9171041;19;20014;-75
2022/05/25 14:26:14;;;;;;;4.03;1.70;;;21.00;57.90;;;;;;9179934;19;20018;-76
2022/05/25 14:29:22;;;;;;;5.97;1.70;;;20.90;58.00;;;;;;9181599;19;20019;-75
2022/05/25 14:32:35;;;;;;;6.30;1.65;;;20.90;58.10;;;;;;9181982;19;20667;-76
2022/05/25 14:35:53;;;;;;;4.65;1.60;;;20.80;57.90;;;;;;9181633;19;20021;-75
2022/05/25 14:39:13;;;;;;;3.88;1.42;;;20.70;57.90;;;;;;9179692;19;20015;-76
2022/05/25 14:42:29;;;;;;;2.85;1.40;;;20.60;57.90;;;;;;9181035;19;20022;-74
2022/05/25 14:45:37;;;;;;;3.00;1.20;;;20.50;58.00;;;;;;9183188;19;20023;-76
2022/05/25 14:48:46;;;;;;;9.98;1.65;;;20.40;58.00;;;;;;9183592;19;20081;-77
2022/05/25 14:51:52;;;;;;;3.42;1.30;;;20.30;57.90;;;;;;9180715;19;20030;-76
2022/05/25 14:55:21;;;;;;;3.95;1.60;;;20.30;58.00;;;;;;9183084;19;20022;-76
2022/05/25 14:58:33;;;;;;;6.50;1.70;;;20.20;58.00;;;;;;9179433;19;20021;-76
2022/05/25 15:01:40;;;;;;;4.63;1.40;;;20.20;58.20;;;;;;9180437;19;20475;-75
2022/05/25 15:04:47;;;;;;;2.35;1.42;;;20.10;58.30;;;;;;9181061;19;20018;-74
2022/05/25 15:07:57;;;;;;;7.25;1.95;;;20.20;58.20;;;;;;9182567;19;20022;-77
2022/05/25 15:11:42;;;;;;;4.90;1.45;;;20.20;58.10;;;;;;9184910;19;20370;-76
2022/05/25 15:18:33;;;;;;;4.55;1.25;;;20.20;57.80;;;;;;9179377;19;20058;-76
2022/05/25 15:21:38;;;;;;;4.32;1.30;;;20.20;58.00;;;;;;9177351;19;20018;-77
2022/05/25 15:25:08;;;;;;;4.20;1.17;;;20.20;58.00;;;;;;9177164;19;20042;-76
2022/05/25 15:28:32;;;;;;;4.45;1.20;;;20.20;57.80;;;;;;9181217;19;20024;-75
2022/05/25 15:31:43;;;;;;;8.77;1.45;;;20.20;57.90;;;;;;9185468;19;20022;-75
2022/05/25 15:34:52;;;;;;;4.40;1.35;;;20.20;57.90;;;;;;9183456;19;20014;-76
2022/05/25 15:38:05;;;;;;;5.55;1.70;;;20.20;57.80;;;;;;9184818;19;20021;-74
2022/05/25 15:41:11;;;;;;;4.78;1.45;;;20.10;57.70;;;;;;9186639;19;20370;-75
2022/05/25 15:44:19;;;;;;;6.15;1.70;;;20.10;57.80;;;;;;9188408;19;20010;-76
2022/05/25 15:47:27;;;;;;;6.40;1.65;;;20.10;57.60;;;;;;9188039;19;20077;-75
2022/05/25 15:50:39;;;;;;;4.55;1.20;;;20.10;57.60;;;;;;9185728;19;20015;-76
2022/05/25 15:53:44;;;;;;;2.58;1.33;;;20.10;57.60;;;;;;9184769;19;20487;-76
2022/05/25 15:56:50;;;;;;;6.22;1.27;;;20.00;57.60;;;;;;9184758;19;20018;-75
2022/05/25 16:00:01;;;;;;;4.07;1.33;;;20.00;57.60;;;;;;9176781;19;20018;-75
2022/05/25 16:03:14;;;;;;;5.85;1.08;;;20.00;57.50;;;;;;9179878;19;20018;-75
2022/05/25 16:06:22;;;;;;;3.88;1.40;;;19.90;57.40;;;;;;9179617;19;20020;-77
2022/05/25 16:09:27;;;;;;;2.28;1.38;;;19.90;57.50;;;;;;9179712;19;20380;-74
2022/05/25 16:12:33;;;;;;;5.38;1.42;;;19.80;57.50;;;;;;9180045;19;20026;-75
2022/05/25 16:15:42;;;;;;;10.32;1.35;;;19.80;57.50;;;;;;9181705;19;20016;-76
2022/05/25 16:18:54;;;;;;;1.67;1.13;;;19.70;57.30;;;;;;9179569;19;20010;-75
2022/05/25 16:21:59;;;;;;;7.25;1.50;;;19.60;57.50;;;;;;9175562;19;20111;-76
2022/05/25 16:25:05;;;;;;;5.55;1.50;;;19.60;57.60;;;;;;9179968;19;20022;-77
2022/05/25 16:28:11;;;;;;;2.80;1.00;;;19.50;57.60;;;;;;9182010;19;20802;-75
2022/05/25 16:31:19;;;;;;;4.30;1.33;;;19.50;57.60;;;;;;9179543;19;20011;-76
2022/05/25 16:34:24;;;;;;;8.45;1.95;;;19.50;57.80;;;;;;9180777;19;20010;-75
2022/05/25 16:37:29;;;;;;;6.25;1.50;;;19.40;58.00;;;;;;9180539;19;20827;-76
2022/05/25 16:40:35;;;;;;;4.00;1.48;;;19.40;58.30;;;;;;9176820;19;20014;-74
2022/05/25 16:43:42;;;;;;;3.60;1.65;;;19.30;58.50;;;;;;9179460;19;20068;-77
2022/05/25 16:46:52;;;;;;;6.15;1.35;;;19.20;58.60;;;;;;9177614;19;20018;-75
2022/05/25 16:49:57;;;;;;;3.65;1.10;;;19.20;58.80;;;;;;9177867;19;20018;-76
2022/05/25 16:53:02;;;;;;;4.22;1.33;;;19.10;58.90;;;;;;9178546;19;20046;-76
2022/05/25 16:56:10;;;;;;;3.33;1.45;;;19.00;58.90;;;;;;9180503;19;20017;-75
2022/05/25 16:59:18;;;;;;;4.53;1.13;;;19.00;59.00;;;;;;9178629;19;20019;-76
2022/05/25 17:02:29;;;;;;;4.63;1.38;;;19.00;59.20;;;;;;9180378;19;20284;-77
2022/05/25 17:05:36;;;;;;;7.53;1.30;;;18.90;59.10;;;;;;9177195;19;20691;-76
2022/05/25 17:08:43;;;;;;;3.50;0.98;;;18.90;59.20;;;;;;9176113;19;20051;-76
2022/05/25 17:11:54;;;;;;;4.38;1.00;;;18.90;59.20;;;;;;9178046;19;20781;-75